sensor_id;sensor_type;location;lat;lon;timestamp;P1;durP1;ratioP1;P2;durP2;ratioP2
20593;SDS011;10455;48.732;10.266;2023-08-17T00:01:47;9.15;;;8.35;;
20593;SDS011;10455;48.732;10.266;2023-08-17T00:06:49;9.88;;;8.98;;
20593;SDS011;10455;48.732;10.266;2023-08-17T00:11:52;10.55;;;9.23;;
20593;SDS011;10455;48.732;10.266;2023-08-17T00:16:54;9.63;;;8.70;;
20593;SDS011;10455;48.732;10.266;2023-08-17T00:21:56;10.35;;;9.35;;
20593;SDS011;10455;48.732;10.266;2023-08-17T00:26:59;10.85;;;9.85;;
20593;SDS011;10455;48.732;10.266;2023-08-17T00:32:01;10.70;;;9.70;;
20593;SDS011;10455;48.732;10.266;2023-08-17T00:37:03;10.00;;;9.20;;
20593;SDS011;10455;48.732;10.266;2023-08-17T00:42:06;10.73;;;9.68;;
20593;SDS011;10455;48.732;10.266;2023-08-17T00:47:08;12.38;;;10.73;;
20593;SDS011;10455;48.732;10.266;2023-08-17T00:52:10;11.95;;;10.85;;
20593;SDS011;10455;48.732;10.266;2023-08-17T00:57:13;10.88;;;9.95;;
20593;SDS011;10455;48.732;10.266;2023-08-17T01:02:15;11.13;;;10.23;;
20593;SDS011;10455;48.732;10.266;2023-08-17T01:07:19;12.00;;;10.90;;
20593;SDS011;10455;48.732;10.266;2023-08-17T01:12:29;12.15;;;10.40;;
20593;SDS011;10455;48.732;10.266;2023-08-17T01:17:33;12.75;;;11.57;;
20593;SDS011;10455;48.732;10.266;2023-08-17T01:22:40;13.63;;;12.30;;
20593;SDS011;10455;48.732;10.266;2023-08-17T01:27:45;11.88;;;10.77;;
20593;SDS011;10455;48.732;10.266;2023-08-17T01:32:48;12.77;;;11.68;;
20593;SDS011;10455;48.732;10.266;2023-08-17T01:37:56;13.60;;;12.40;;
20593;SDS011;10455;48.732;10.266;2023-08-17T01:43:02;15.65;;;14.23;;
20593;SDS011;10455;48.732;10.266;2023-08-17T01:48:05;14.55;;;13.25;;
20593;SDS011;10455;48.732;10.266;2023-08-17T01:53:07;13.52;;;12.32;;
20593;SDS011;10455;48.732;10.266;2023-08-17T01:58:11;15.35;;;14.05;;
20593;SDS011;10455;48.732;10.266;2023-08-17T02:03:13;16.10;;;14.73;;
20593;SDS011;10455;48.732;10.266;2023-08-17T02:08:14;17.42;;;15.65;;
20593;SDS011;10455;48.732;10.266;2023-08-17T02:13:18;17.10;;;15.63;;
20593;SDS011;10455;48.732;10.266;2023-08-17T02:18:20;16.08;;;14.68;;
20593;SDS011;10455;48.732;10.266;2023-08-17T02:23:22;15.43;;;13.98;;
20593;SDS011;10455;48.732;10.266;2023-08-17T02:28:25;16.60;;;15.10;;
20593;SDS011;10455;48.732;10.266;2023-08-17T02:33:27;19.98;;;17.95;;
20593;SDS011;10455;48.732;10.266;2023-08-17T02:38:29;11.80;;;10.73;;
20593;SDS011;10455;48.732;10.266;2023-08-17T02:43:32;14.65;;;13.35;;
20593;SDS011;10455;48.732;10.266;2023-08-17T02:48:34;11.77;;;10.57;;
20593;SDS011;10455;48.732;10.266;2023-08-17T02:53:36;14.07;;;12.68;;
20593;SDS011;10455;48.732;10.266;2023-08-17T02:58:39;16.17;;;14.82;;
20593;SDS011;10455;48.732;10.266;2023-08-17T03:03:41;16.88;;;15.48;;
20593;SDS011;10455;48.732;10.266;2023-08-17T03:08:43;16.08;;;14.55;;
20593;SDS011;10455;48.732;10.266;2023-08-17T03:13:47;16.48;;;15.05;;
20593;SDS011;10455;48.732;10.266;2023-08-17T03:18:48;16.88;;;15.27;;
20593;SDS011;10455;48.732;10.266;2023-08-17T03:23:50;14.98;;;13.60;;
20593;SDS011;10455;48.732;10.266;2023-08-17T03:28:54;14.77;;;13.45;;
20593;SDS011;10455;48.732;10.266;2023-08-17T03:33:56;15.82;;;14.43;;
20593;SDS011;10455;48.732;10.266;2023-08-17T03:38:59;15.65;;;14.35;;
20593;SDS011;10455;48.732;10.266;2023-08-17T03:44:02;15.98;;;14.40;;
20593;SDS011;10455;48.732;10.266;2023-08-17T03:49:06;15.13;;;13.73;;
20593;SDS011;10455;48.732;10.266;2023-08-17T03:54:07;15.60;;;14.20;;
20593;SDS011;10455;48.732;10.266;2023-08-17T03:59:11;15.23;;;13.75;;
20593;SDS011;10455;48.732;10.266;2023-08-17T04:04:13;18.65;;;16.92;;
20593;SDS011;10455;48.732;10.266;2023-08-17T04:09:14;20.77;;;18.90;;
20593;SDS011;10455;48.732;10.266;2023-08-17T04:14:18;19.85;;;18.00;;
20593;SDS011;10455;48.732;10.266;2023-08-17T04:19:19;17.48;;;15.88;;
20593;SDS011;10455;48.732;10.266;2023-08-17T04:24:21;16.30;;;14.75;;
20593;SDS011;10455;48.732;10.266;2023-08-17T04:29:24;19.58;;;17.60;;
20593;SDS011;10455;48.732;10.266;2023-08-17T04:34:26;17.88;;;16.33;;
20593;SDS011;10455;48.732;10.266;2023-08-17T04:39:28;17.85;;;16.23;;
20593;SDS011;10455;48.732;10.266;2023-08-17T04:44:31;16.00;;;14.45;;
20593;SDS011;10455;48.732;10.266;2023-08-17T04:49:33;14.13;;;12.77;;
20593;SDS011;10455;48.732;10.266;2023-08-17T04:54:35;14.77;;;13.38;;
20593;SDS011;10455;48.732;10.266;2023-08-17T04:59:39;15.27;;;13.85;;
20593;SDS011;10455;48.732;10.266;2023-08-17T05:04:41;14.60;;;13.50;;
20593;SDS011;10455;48.732;10.266;2023-08-17T05:09:43;9.10;;;8.20;;
20593;SDS011;10455;48.732;10.266;2023-08-17T05:14:46;8.00;;;7.32;;
20593;SDS011;10455;48.732;10.266;2023-08-17T05:19:48;9.63;;;8.45;;
20593;SDS011;10455;48.732;10.266;2023-08-17T05:24:51;6.55;;;5.95;;
20593;SDS011;10455;48.732;10.266;2023-08-17T05:29:54;7.78;;;7.07;;
20593;SDS011;10455;48.732;10.266;2023-08-17T05:34:56;7.28;;;6.47;;
20593;SDS011;10455;48.732;10.266;2023-08-17T05:39:58;6.30;;;5.80;;
20593;SDS011;10455;48.732;10.266;2023-08-17T05:45:02;5.80;;;5.40;;
20593;SDS011;10455;48.732;10.266;2023-08-17T05:50:04;5.25;;;4.63;;
20593;SDS011;10455;48.732;10.266;2023-08-17T05:55:07;5.97;;;5.38;;
20593;SDS011;10455;48.732;10.266;2023-08-17T06:00:11;7.78;;;5.05;;
20593;SDS011;10455;48.732;10.266;2023-08-17T06:05:14;5.55;;;5.05;;
20593;SDS011;10455;48.732;10.266;2023-08-17T06:10:16;4.68;;;4.28;;
20593;SDS011;10455;48.732;10.266;2023-08-17T06:15:19;5.10;;;4.70;;
20593;SDS011;10455;48.732;10.266;2023-08-17T06:20:21;5.60;;;4.40;;
20593;SDS011;10455;48.732;10.266;2023-08-17T06:25:22;5.20;;;4.70;;
20593;SDS011;10455;48.732;10.266;2023-08-17T06:30:27;5.60;;;5.10;;
20593;SDS011;10455;48.732;10.266;2023-08-17T06:35:29;5.00;;;4.70;;
20593;SDS011;10455;48.732;10.266;2023-08-17T06:40:31;4.30;;;3.90;;
20593;SDS011;10455;48.732;10.266;2023-08-17T06:45:34;5.70;;;5.13;;
20593;SDS011;10455;48.732;10.266;2023-08-17T06:50:36;5.82;;;5.35;;
20593;SDS011;10455;48.732;10.266;2023-08-17T06:55:38;5.50;;;5.07;;
20593;SDS011;10455;48.732;10.266;2023-08-17T07:00:41;6.45;;;5.00;;
20593;SDS011;10455;48.732;10.266;2023-08-17T07:05:44;6.43;;;5.63;;
20593;SDS011;10455;48.732;10.266;2023-08-17T07:10:45;6.40;;;5.63;;
20593;SDS011;10455;48.732;10.266;2023-08-17T07:15:49;6.43;;;5.85;;
20593;SDS011;10455;48.732;10.266;2023-08-17T07:20:50;7.05;;;6.15;;
20593;SDS011;10455;48.732;10.266;2023-08-17T07:25:52;6.70;;;6.20;;
20593;SDS011;10455;48.732;10.266;2023-08-17T07:30:55;6.60;;;5.97;;
20593;SDS011;10455;48.732;10.266;2023-08-17T07:35:57;7.03;;;6.32;;
20593;SDS011;10455;48.732;10.266;2023-08-17T07:40:59;5.30;;;4.80;;
20593;SDS011;10455;48.732;10.266;2023-08-17T07:46:02;6.75;;;6.25;;
20593;SDS011;10455;48.732;10.266;2023-08-17T07:51:04;6.97;;;6.35;;
20593;SDS011;10455;48.732;10.266;2023-08-17T07:56:06;7.32;;;6.75;;
20593;SDS011;10455;48.732;10.266;2023-08-17T08:01:09;7.35;;;6.57;;
20593;SDS011;10455;48.732;10.266;2023-08-17T08:06:11;6.80;;;6.30;;
20593;SDS011;10455;48.732;10.266;2023-08-17T08:11:13;5.60;;;5.20;;
20593;SDS011;10455;48.732;10.266;2023-08-17T08:16:16;6.57;;;6.00;;
20593;SDS011;10455;48.732;10.266;2023-08-17T08:21:18;6.85;;;6.28;;
20593;SDS011;10455;48.732;10.266;2023-08-17T08:26:20;5.32;;;4.93;;
20593;SDS011;10455;48.732;10.266;2023-08-17T08:31:23;7.45;;;6.75;;
20593;SDS011;10455;48.732;10.266;2023-08-17T08:36:25;5.97;;;5.57;;
20593;SDS011;10455;48.732;10.266;2023-08-17T08:41:27;5.90;;;5.30;;
20593;SDS011;10455;48.732;10.266;2023-08-17T08:46:33;7.85;;;7.15;;
20593;SDS011;10455;48.732;10.266;2023-08-17T08:51:35;7.57;;;6.68;;
20593;SDS011;10455;48.732;10.266;2023-08-17T08:56:43;7.35;;;6.75;;
20593;SDS011;10455;48.732;10.266;2023-08-17T09:01:48;7.82;;;7.13;;
20593;SDS011;10455;48.732;10.266;2023-08-17T09:06:51;6.78;;;6.28;;
20593;SDS011;10455;48.732;10.266;2023-08-17T09:11:54;7.10;;;6.50;;
20593;SDS011;10455;48.732;10.266;2023-08-17T09:16:57;10.43;;;6.25;;
20593;SDS011;10455;48.732;10.266;2023-08-17T09:21:59;6.47;;;5.97;;
20593;SDS011;10455;48.732;10.266;2023-08-17T09:27:02;7.30;;;6.70;;
20593;SDS011;10455;48.732;10.266;2023-08-17T09:32:06;7.38;;;6.80;;
20593;SDS011;10455;48.732;10.266;2023-08-17T09:37:11;7.25;;;6.65;;
20593;SDS011;10455;48.732;10.266;2023-08-17T09:42:13;7.20;;;6.60;;
20593;SDS011;10455;48.732;10.266;2023-08-17T09:47:19;5.63;;;5.22;;
20593;SDS011;10455;48.732;10.266;2023-08-17T09:52:22;6.43;;;5.93;;
20593;SDS011;10455;48.732;10.266;2023-08-17T09:57:24;6.43;;;6.03;;
20593;SDS011;10455;48.732;10.266;2023-08-17T10:02:28;5.82;;;5.35;;
20593;SDS011;10455;48.732;10.266;2023-08-17T10:07:30;7.57;;;6.57;;
20593;SDS011;10455;48.732;10.266;2023-08-17T10:12:36;7.50;;;6.80;;
20593;SDS011;10455;48.732;10.266;2023-08-17T10:17:43;6.15;;;5.53;;
20593;SDS011;10455;48.732;10.266;2023-08-17T10:22:51;6.20;;;5.53;;
20593;SDS011;10455;48.732;10.266;2023-08-17T10:27:59;7.10;;;5.97;;
20593;SDS011;10455;48.732;10.266;2023-08-17T10:33:05;6.78;;;6.28;;
20593;SDS011;10455;48.732;10.266;2023-08-17T10:38:07;5.95;;;5.45;;
20593;SDS011;10455;48.732;10.266;2023-08-17T10:43:09;5.68;;;5.25;;
20593;SDS011;10455;48.732;10.266;2023-08-17T10:48:26;5.60;;;4.75;;
20593;SDS011;10455;48.732;10.266;2023-08-17T10:53:36;5.85;;;5.28;;
20593;SDS011;10455;48.732;10.266;2023-08-17T10:58:43;5.80;;;5.40;;
20593;SDS011;10455;48.732;10.266;2023-08-17T11:03:46;5.53;;;5.13;;
20593;SDS011;10455;48.732;10.266;2023-08-17T11:08:52;6.55;;;5.95;;
20593;SDS011;10455;48.732;10.266;2023-08-17T11:13:56;6.15;;;5.65;;
20593;SDS011;10455;48.732;10.266;2023-08-17T11:19:01;6.88;;;6.20;;
20593;SDS011;10455;48.732;10.266;2023-08-17T11:24:03;6.55;;;6.05;;
20593;SDS011;10455;48.732;10.266;2023-08-17T11:29:09;6.60;;;6.00;;
20593;SDS011;10455;48.732;10.266;2023-08-17T11:34:15;5.90;;;5.38;;
20593;SDS011;10455;48.732;10.266;2023-08-17T11:39:17;5.82;;;5.32;;
20593;SDS011;10455;48.732;10.266;2023-08-17T11:44:21;7.03;;;6.35;;
20593;SDS011;10455;48.732;10.266;2023-08-17T11:49:24;5.72;;;5.32;;
20593;SDS011;10455;48.732;10.266;2023-08-17T11:54:26;5.07;;;4.68;;
20593;SDS011;10455;48.732;10.266;2023-08-17T11:59:28;5.10;;;4.70;;
20593;SDS011;10455;48.732;10.266;2023-08-17T12:04:34;4.85;;;4.45;;
20593;SDS011;10455;48.732;10.266;2023-08-17T12:09:36;4.93;;;4.55;;
20593;SDS011;10455;48.732;10.266;2023-08-17T12:14:40;4.35;;;4.05;;
20593;SDS011;10455;48.732;10.266;2023-08-17T12:19:44;4.40;;;4.00;;
20593;SDS011;10455;48.732;10.266;2023-08-17T12:24:49;4.72;;;4.35;;
20593;SDS011;10455;48.732;10.266;2023-08-17T12:29:51;4.22;;;3.92;;
20593;SDS011;10455;48.732;10.266;2023-08-17T12:34:55;4.72;;;4.32;;
20593;SDS011;10455;48.732;10.266;2023-08-17T12:39:56;5.35;;;4.80;;
20593;SDS011;10455;48.732;10.266;2023-08-17T12:44:58;4.80;;;4.47;;
20593;SDS011;10455;48.732;10.266;2023-08-17T12:50:02;5.15;;;4.75;;
20593;SDS011;10455;48.732;10.266;2023-08-17T12:55:04;4.85;;;4.47;;
20593;SDS011;10455;48.732;10.266;2023-08-17T13:00:07;4.68;;;4.28;;
20593;SDS011;10455;48.732;10.266;2023-08-17T13:05:11;4.75;;;4.35;;
20593;SDS011;10455;48.732;10.266;2023-08-17T13:10:13;4.70;;;4.40;;
20593;SDS011;10455;48.732;10.266;2023-08-17T13:15:15;4.25;;;3.95;;
20593;SDS011;10455;48.732;10.266;2023-08-17T13:20:18;4.80;;;4.40;;
20593;SDS011;10455;48.732;10.266;2023-08-17T13:25:20;4.97;;;4.57;;
20593;SDS011;10455;48.732;10.266;2023-08-17T13:30:22;4.75;;;4.10;;
20593;SDS011;10455;48.732;10.266;2023-08-17T13:35:25;4.78;;;4.38;;
20593;SDS011;10455;48.732;10.266;2023-08-17T13:40:27;4.32;;;3.92;;
20593;SDS011;10455;48.732;10.266;2023-08-17T13:45:29;4.88;;;4.47;;
20593;SDS011;10455;48.732;10.266;2023-08-17T13:50:32;6.03;;;5.30;;
20593;SDS011;10455;48.732;10.266;2023-08-17T13:55:34;5.78;;;5.07;;
20593;SDS011;10455;48.732;10.266;2023-08-17T14:00:36;6.47;;;5.88;;
20593;SDS011;10455;48.732;10.266;2023-08-17T14:05:39;6.68;;;5.70;;
20593;SDS011;10455;48.732;10.266;2023-08-17T14:10:41;5.40;;;4.00;;
20593;SDS011;10455;48.732;10.266;2023-08-17T14:15:43;18.10;;;9.27;;
20593;SDS011;10455;48.732;10.266;2023-08-17T14:20:46;0.10;;;0.10;;
20593;SDS011;10455;48.732;10.266;2023-08-17T14:25:48;0.00;;;0.00;;
20593;SDS011;10455;48.732;10.266;2023-08-17T14:30:52;0.10;;;0.10;;
20593;SDS011;10455;48.732;10.266;2023-08-17T14:35:55;0.00;;;0.00;;
20593;SDS011;10455;48.732;10.266;2023-08-17T14:40:57;0.20;;;0.20;;
20593;SDS011;10455;48.732;10.266;2023-08-17T14:45:58;0.20;;;0.20;;
20593;SDS011;10455;48.732;10.266;2023-08-17T14:51:02;0.10;;;0.10;;
20593;SDS011;10455;48.732;10.266;2023-08-17T14:56:04;0.10;;;0.10;;
20593;SDS011;10455;48.732;10.266;2023-08-17T15:01:05;1.48;;;1.38;;
20593;SDS011;10455;48.732;10.266;2023-08-17T15:06:09;0.10;;;0.10;;
20593;SDS011;10455;48.732;10.266;2023-08-17T15:11:11;0.10;;;0.10;;
20593;SDS011;10455;48.732;10.266;2023-08-17T15:16:13;0.10;;;0.10;;
20593;SDS011;10455;48.732;10.266;2023-08-17T15:21:16;0.15;;;0.15;;
20593;SDS011;10455;48.732;10.266;2023-08-17T15:26:18;0.00;;;0.00;;
20593;SDS011;10455;48.732;10.266;2023-08-17T15:31:20;1.33;;;1.17;;
20593;SDS011;10455;48.732;10.266;2023-08-17T15:36:23;0.35;;;0.35;;
20593;SDS011;10455;48.732;10.266;2023-08-17T15:41:26;0.43;;;0.38;;
20593;SDS011;10455;48.732;10.266;2023-08-17T15:46:28;0.17;;;0.17;;
20593;SDS011;10455;48.732;10.266;2023-08-17T15:51:33;0.43;;;0.43;;
20593;SDS011;10455;48.732;10.266;2023-08-17T15:56:35;1.30;;;0.35;;
20593;SDS011;10455;48.732;10.266;2023-08-17T16:01:37;0.08;;;0.08;;
20593;SDS011;10455;48.732;10.266;2023-08-17T16:06:40;0.73;;;0.73;;
20593;SDS011;10455;48.732;10.266;2023-08-17T16:11:43;0.20;;;0.20;;
20593;SDS011;10455;48.732;10.266;2023-08-17T16:16:45;0.15;;;0.15;;
20593;SDS011;10455;48.732;10.266;2023-08-17T16:21:48;0.20;;;0.20;;
20593;SDS011;10455;48.732;10.266;2023-08-17T16:26:50;0.00;;;0.00;;
20593;SDS011;10455;48.732;10.266;2023-08-17T16:31:58;0.10;;;0.10;;
20593;SDS011;10455;48.732;10.266;2023-08-17T16:37:03;0.30;;;0.30;;
20593;SDS011;10455;48.732;10.266;2023-08-17T16:42:05;0.90;;;0.90;;
20593;SDS011;10455;48.732;10.266;2023-08-17T16:47:07;0.00;;;0.00;;
20593;SDS011;10455;48.732;10.266;2023-08-17T16:52:10;0.00;;;0.00;;
20593;SDS011;10455;48.732;10.266;2023-08-17T16:57:12;0.00;;;0.00;;
20593;SDS011;10455;48.732;10.266;2023-08-17T17:02:15;0.73;;;0.73;;
20593;SDS011;10455;48.732;10.266;2023-08-17T17:07:18;0.00;;;0.00;;
20593;SDS011;10455;48.732;10.266;2023-08-17T17:12:20;0.17;;;0.17;;
20593;SDS011;10455;48.732;10.266;2023-08-17T17:17:21;0.90;;;0.90;;
20593;SDS011;10455;48.732;10.266;2023-08-17T17:22:25;0.00;;;0.00;;
20593;SDS011;10455;48.732;10.266;2023-08-17T17:27:27;0.05;;;0.05;;
20593;SDS011;10455;48.732;10.266;2023-08-17T17:32:29;0.10;;;0.10;;
20593;SDS011;10455;48.732;10.266;2023-08-17T17:37:32;0.28;;;0.28;;
20593;SDS011;10455;48.732;10.266;2023-08-17T17:42:34;0.10;;;0.10;;
20593;SDS011;10455;48.732;10.266;2023-08-17T17:47:36;0.00;;;0.00;;
20593;SDS011;10455;48.732;10.266;2023-08-17T17:52:39;0.43;;;0.43;;
20593;SDS011;10455;48.732;10.266;2023-08-17T17:57:41;1.00;;;1.00;;
20593;SDS011;10455;48.732;10.266;2023-08-17T18:02:43;0.28;;;0.28;;
20593;SDS011;10455;48.732;10.266;2023-08-17T18:07:46;0.15;;;0.15;;
20593;SDS011;10455;48.732;10.266;2023-08-17T18:12:48;0.10;;;0.10;;
20593;SDS011;10455;48.732;10.266;2023-08-17T18:17:52;0.47;;;0.43;;
20593;SDS011;10455;48.732;10.266;2023-08-17T18:22:55;0.22;;;0.22;;
20593;SDS011;10455;48.732;10.266;2023-08-17T18:27:57;0.40;;;0.40;;
20593;SDS011;10455;48.732;10.266;2023-08-17T18:32:59;7.57;;;5.68;;
20593;SDS011;10455;48.732;10.266;2023-08-17T18:38:02;0.10;;;0.10;;
20593;SDS011;10455;48.732;10.266;2023-08-17T18:43:04;2.28;;;0.32;;
20593;SDS011;10455;48.732;10.266;2023-08-17T18:48:06;0.10;;;0.10;;
20593;SDS011;10455;48.732;10.266;2023-08-17T18:53:10;0.20;;;0.20;;
20593;SDS011;10455;48.732;10.266;2023-08-17T18:58:11;0.00;;;0.00;;
20593;SDS011;10455;48.732;10.266;2023-08-17T19:03:13;0.10;;;0.10;;
20593;SDS011;10455;48.732;10.266;2023-08-17T19:08:17;0.20;;;0.20;;
20593;SDS011;10455;48.732;10.266;2023-08-17T19:13:19;0.10;;;0.10;;
20593;SDS011;10455;48.732;10.266;2023-08-17T19:18:20;0.10;;;0.10;;
20593;SDS011;10455;48.732;10.266;2023-08-17T19:23:24;0.10;;;0.10;;
20593;SDS011;10455;48.732;10.266;2023-08-17T19:28:26;0.10;;;0.10;;
20593;SDS011;10455;48.732;10.266;2023-08-17T19:33:28;0.10;;;0.10;;
20593;SDS011;10455;48.732;10.266;2023-08-17T19:38:31;0.20;;;0.20;;
20593;SDS011;10455;48.732;10.266;2023-08-17T19:43:33;0.10;;;0.10;;
20593;SDS011;10455;48.732;10.266;2023-08-17T19:48:38;0.98;;;0.98;;
20593;SDS011;10455;48.732;10.266;2023-08-17T19:53:42;0.75;;;0.50;;
20593;SDS011;10455;48.732;10.266;2023-08-17T19:58:44;0.20;;;0.20;;
20593;SDS011;10455;48.732;10.266;2023-08-17T20:03:46;0.10;;;0.10;;
20593;SDS011;10455;48.732;10.266;2023-08-17T20:08:51;0.10;;;0.10;;
20593;SDS011;10455;48.732;10.266;2023-08-17T20:13:53;0.43;;;0.43;;
20593;SDS011;10455;48.732;10.266;2023-08-17T20:18:55;0.10;;;0.10;;
20593;SDS011;10455;48.732;10.266;2023-08-17T20:23:59;0.10;;;0.10;;
20593;SDS011;10455;48.732;10.266;2023-08-17T20:29:01;0.20;;;0.20;;
20593;SDS011;10455;48.732;10.266;2023-08-17T20:34:07;0.50;;;0.50;;
20593;SDS011;10455;48.732;10.266;2023-08-17T20:39:13;0.10;;;0.10;;
20593;SDS011;10455;48.732;10.266;2023-08-17T20:44:16;11.15;;;3.55;;
20593;SDS011;10455;48.732;10.266;2023-08-17T20:49:20;0.15;;;0.15;;
20593;SDS011;10455;48.732;10.266;2023-08-17T20:54:23;0.20;;;0.20;;
20593;SDS011;10455;48.732;10.266;2023-08-17T20:59:25;0.22;;;0.22;;
20593;SDS011;10455;48.732;10.266;2023-08-17T21:04:28;0.32;;;0.32;;
20593;SDS011;10455;48.732;10.266;2023-08-17T21:09:34;0.10;;;0.10;;
20593;SDS011;10455;48.732;10.266;2023-08-17T21:14:35;0.20;;;0.20;;
20593;SDS011;10455;48.732;10.266;2023-08-17T21:19:37;0.10;;;0.10;;
20593;SDS011;10455;48.732;10.266;2023-08-17T21:24:41;0.63;;;0.63;;
20593;SDS011;10455;48.732;10.266;2023-08-17T21:29:43;0.10;;;0.10;;
20593;SDS011;10455;48.732;10.266;2023-08-17T21:34:45;0.10;;;0.10;;
20593;SDS011;10455;48.732;10.266;2023-08-17T21:39:49;0.10;;;0.10;;
20593;SDS011;10455;48.732;10.266;2023-08-17T21:44:53;0.10;;;0.10;;
20593;SDS011;10455;48.732;10.266;2023-08-17T21:50:00;0.28;;;0.28;;
20593;SDS011;10455;48.732;10.266;2023-08-17T21:55:09;21.10;;;0.95;;
20593;SDS011;10455;48.732;10.266;2023-08-17T22:00:14;0.10;;;0.10;;
20593;SDS011;10455;48.732;10.266;2023-08-17T22:05:20;5.72;;;0.32;;
20593;SDS011;10455;48.732;10.266;2023-08-17T22:10:23;0.57;;;0.57;;
20593;SDS011;10455;48.732;10.266;2023-08-17T22:15:25;0.20;;;0.20;;
20593;SDS011;10455;48.732;10.266;2023-08-17T22:20:28;0.32;;;0.32;;
20593;SDS011;10455;48.732;10.266;2023-08-17T22:25:31;0.10;;;0.10;;
20593;SDS011;10455;48.732;10.266;2023-08-17T22:30:33;0.10;;;0.10;;
20593;SDS011;10455;48.732;10.266;2023-08-17T22:35:35;0.20;;;0.20;;
20593;SDS011;10455;48.732;10.266;2023-08-17T22:40:39;0.20;;;0.20;;
20593;SDS011;10455;48.732;10.266;2023-08-17T22:45:42;0.20;;;0.20;;
20593;SDS011;10455;48.732;10.266;2023-08-17T22:50:44;0.50;;;0.50;;
20593;SDS011;10455;48.732;10.266;2023-08-17T22:55:49;0.20;;;0.20;;
20593;SDS011;10455;48.732;10.266;2023-08-17T23:00:56;0.20;;;0.20;;
20593;SDS011;10455;48.732;10.266;2023-08-17T23:05:58;0.20;;;0.20;;
20593;SDS011;10455;48.732;10.266;2023-08-17T23:11:03;0.20;;;0.20;;
20593;SDS011;10455;48.732;10.266;2023-08-17T23:16:05;0.40;;;0.40;;
20593;SDS011;10455;48.732;10.266;2023-08-17T23:21:08;0.20;;;0.20;;
20593;SDS011;10455;48.732;10.266;2023-08-17T23:26:11;0.20;;;0.20;;
20593;SDS011;10455;48.732;10.266;2023-08-17T23:31:13;0.30;;;0.30;;
20593;SDS011;10455;48.732;10.266;2023-08-17T23:36:15;0.20;;;0.20;;
20593;SDS011;10455;48.732;10.266;2023-08-17T23:41:18;0.35;;;0.35;;
20593;SDS011;10455;48.732;10.266;2023-08-17T23:46:20;0.20;;;0.20;;
20593;SDS011;10455;48.732;10.266;2023-08-17T23:51:22;0.30;;;0.30;;
20593;SDS011;10455;48.732;10.266;2023-08-17T23:56:25;0.20;;;0.20;;
